Time;durP1;ratioP1;P1;durP2;ratioP2;P2;SDS_P1;SDS_P2;PMS_P1;PMS_P2;Temp;Humidity;BMP_temperature;BMP_pressure;BME280_temperature;BME280_humidity;BME280_pressure;Samples;Min_cycle;Max_cycle;Signal;HPM_P1;HPM_P2
2023/01/14 00:01:40;;;;;;;2.63;1.23;;;3.70;99.90;;;;;;5021316;28;20041;-83
2023/01/14 00:04:06;;;;;;;3.10;1.00;;;3.70;99.90;;;;;;5023240;28;20030;-83
2023/01/14 00:06:35;;;;;;;3.20;1.20;;;3.70;99.90;;;;;;5023738;28;20029;-83
2023/01/14 00:09:04;;;;;;;2.73;1.77;;;3.70;99.90;;;;;;5022778;28;20032;-84
2023/01/14 00:11:45;;;;;;;4.57;1.30;;;3.70;99.90;;;;;;5009178;28;20048;-83
2023/01/14 00:14:21;;;;;;;2.60;1.23;;;3.70;99.90;;;;;;5003184;28;20087;-83
2023/01/14 00:16:48;;;;;;;1.60;1.03;;;3.80;99.90;;;;;;5029693;28;20010;-83
2023/01/14 00:19:14;;;;;;;3.17;1.10;;;3.80;99.90;;;;;;5032334;28;20021;-83
2023/01/14 00:21:41;;;;;;;3.13;1.10;;;3.80;99.90;;;;;;5011514;28;20018;-83
2023/01/14 00:24:07;;;;;;;5.90;1.60;;;3.70;99.90;;;;;;5024612;28;20025;-83
2023/01/14 00:26:33;;;;;;;2.67;1.10;;;3.70;99.90;;;;;;5024406;28;20096;-83
2023/01/14 00:28:59;;;;;;;2.73;1.20;;;3.60;99.90;;;;;;5017714;28;20052;-83
2023/01/14 00:31:27;;;;;;;2.10;0.97;;;3.60;99.90;;;;;;5020671;28;20080;-83
2023/01/14 00:33:54;;;;;;;2.80;1.10;;;3.60;99.90;;;;;;5019879;28;20104;-84
2023/01/14 00:36:22;;;;;;;2.80;0.90;;;3.60;99.90;;;;;;5021007;28;21468;-83
2023/01/14 00:38:48;;;;;;;8.40;2.13;;;3.60;99.90;;;;;;5020336;28;20101;-84
2023/01/14 00:41:20;;;;;;;3.27;1.03;;;3.60;99.90;;;;;;5020536;28;20063;-84
2023/01/14 00:43:48;;;;;;;2.27;1.00;;;3.60;99.90;;;;;;5021365;28;20087;-84
2023/01/14 00:46:16;;;;;;;5.63;1.87;;;3.50;99.90;;;;;;5019768;28;20048;-84
2023/01/14 00:48:42;;;;;;;4.83;1.57;;;3.60;99.90;;;;;;5018613;28;20036;-84
2023/01/14 00:51:09;;;;;;;3.63;1.40;;;3.60;99.90;;;;;;5020689;28;20493;-84
2023/01/14 00:53:36;;;;;;;1.83;1.00;;;3.60;99.90;;;;;;5020495;28;20025;-84
2023/01/14 00:56:01;;;;;;;3.93;1.07;;;3.50;99.90;;;;;;5001618;28;20022;-82
2023/01/14 00:58:27;;;;;;;5.63;1.10;;;3.40;99.90;;;;;;5019028;28;20037;-83
2023/01/14 01:00:53;;;;;;;3.60;1.10;;;3.50;99.90;;;;;;5020084;28;20094;-83
2023/01/14 01:03:19;;;;;;;3.67;1.00;;;3.40;99.90;;;;;;5019176;28;20044;-83
2023/01/14 01:05:45;;;;;;;4.00;1.20;;;3.40;99.90;;;;;;5000737;28;20037;-83
2023/01/14 01:08:14;;;;;;;5.07;1.20;;;3.50;99.90;;;;;;4999057;28;20034;-83
2023/01/14 01:10:42;;;;;;;7.83;1.77;;;3.40;99.90;;;;;;5021340;28;20025;-84
2023/01/14 01:13:09;;;;;;;4.27;1.10;;;3.50;99.90;;;;;;5021607;28;20013;-84
2023/01/14 01:15:36;;;;;;;3.30;1.00;;;3.50;99.90;;;;;;5020695;28;20426;-83
2023/01/14 01:18:02;;;;;;;4.40;1.50;;;3.50;99.90;;;;;;5020616;28;20022;-84
2023/01/14 01:20:29;;;;;;;2.53;1.00;;;3.50;99.90;;;;;;5021118;28;20047;-83
2023/01/14 01:22:54;;;;;;;5.80;1.43;;;3.50;99.90;;;;;;5025355;28;20045;-83
2023/01/14 01:25:20;;;;;;;4.67;1.40;;;3.40;99.90;;;;;;5028013;28;20505;-83
2023/01/14 01:27:46;;;;;;;7.37;1.40;;;3.40;99.90;;;;;;5028414;28;20025;-84
2023/01/14 01:30:12;;;;;;;6.57;1.83;;;3.40;99.90;;;;;;5026478;28;20029;-83
2023/01/14 01:32:38;;;;;;;5.00;1.73;;;3.40;99.90;;;;;;5008395;28;20040;-83
2023/01/14 01:35:04;;;;;;;5.43;1.20;;;3.30;99.90;;;;;;5031039;28;20025;-83
2023/01/14 01:37:30;;;;;;;2.93;1.20;;;3.30;99.90;;;;;;5030068;28;20022;-84
2023/01/14 01:39:55;;;;;;;5.70;1.27;;;3.30;99.90;;;;;;5027908;28;20076;-83
2023/01/14 01:42:23;;;;;;;4.40;1.20;;;3.30;99.90;;;;;;5030998;28;20058;-83
2023/01/14 01:44:49;;;;;;;10.93;2.17;;;3.30;99.90;;;;;;5031198;28;20061;-84
2023/01/14 01:47:18;;;;;;;3.57;1.37;;;3.30;99.90;;;;;;5031838;28;20063;-84
2023/01/14 01:49:46;;;;;;;4.47;1.50;;;3.30;99.90;;;;;;5014113;28;20048;-84
2023/01/14 01:52:28;;;;;;;7.57;1.40;;;3.20;99.90;;;;;;5012921;28;20029;-84
2023/01/14 01:54:58;;;;;;;6.30;1.50;;;3.30;99.90;;;;;;5031463;28;20017;-83
2023/01/14 01:57:25;;;;;;;7.27;1.57;;;3.20;99.90;;;;;;5031142;28;20048;-84
2023/01/14 01:59:56;;;;;;;3.77;1.20;;;3.30;99.90;;;;;;5031914;28;20038;-84
2023/01/14 02:02:22;;;;;;;6.07;1.47;;;3.20;99.90;;;;;;5007454;28;20033;-84
2023/01/14 02:04:48;;;;;;;6.10;1.67;;;3.30;99.90;;;;;;5032308;28;20049;-84
2023/01/14 02:07:22;;;;;;;4.37;1.77;;;3.30;99.90;;;;;;5030411;28;20179;-83
2023/01/14 02:09:51;;;;;;;3.90;1.40;;;3.30;99.90;;;;;;5029767;28;20017;-84
2023/01/14 02:12:52;;;;;;;7.57;3.00;;;3.20;99.90;;;;;;5031219;28;20045;-84
2023/01/14 02:15:48;;;;;;;5.03;1.90;;;3.20;99.90;;;;;;5030611;28;20033;-83
2023/01/14 02:18:48;;;;;;;7.30;2.33;;;3.20;99.90;;;;;;5030524;28;20365;-83
2023/01/14 02:21:23;;;;;;;6.33;2.60;;;3.20;99.90;;;;;;5031574;28;20094;-83
2023/01/14 02:23:55;;;;;;;8.88;2.47;;;3.20;99.90;;;;;;5030643;28;20021;-83
2023/01/14 02:26:33;;;;;;;5.30;2.07;;;3.10;99.90;;;;;;5030287;28;20025;-84
2023/01/14 02:29:32;;;;;;;7.50;1.90;;;3.10;99.90;;;;;;5029426;28;20054;-84
2023/01/14 02:32:10;;;;;;;8.33;1.77;;;3.00;99.90;;;;;;5030633;28;20018;-84
2023/01/14 02:34:50;;;;;;;8.00;1.80;;;3.00;99.90;;;;;;5031825;28;20518;-83
2023/01/14 02:37:32;;;;;;;9.07;3.20;;;2.90;99.90;;;;;;5030313;28;20040;-83
2023/01/14 02:40:33;;;;;;;12.30;3.80;;;2.90;99.90;;;;;;5031138;28;20076;-83
2023/01/14 02:46:11;;;;;;;11.00;2.58;;;2.80;99.90;;;;;;5033754;28;20044;-83
2023/01/14 02:48:38;;;;;;;8.03;1.80;;;2.80;99.90;;;;;;5029512;28;20458;-84
2023/01/14 02:51:04;;;;;;;7.10;1.80;;;2.80;99.90;;;;;;5028432;28;20041;-83
2023/01/14 02:53:29;;;;;;;7.07;2.27;;;2.80;99.90;;;;;;5031728;28;20025;-84
2023/01/14 02:55:55;;;;;;;10.23;3.30;;;2.80;99.90;;;;;;5030089;28;20033;-84
2023/01/14 02:58:52;;;;;;;11.43;3.57;;;2.80;99.90;;;;;;5030791;28;20117;-84
2023/01/14 03:01:39;;;;;;;10.00;3.17;;;2.80;99.90;;;;;;5026613;28;20030;-83
2023/01/14 03:04:34;;;;;;;5.80;1.63;;;2.80;99.90;;;;;;5030690;28;20017;-84
2023/01/14 03:07:21;;;;;;;5.23;1.50;;;2.80;99.90;;;;;;5029215;28;20025;-84
2023/01/14 03:10:08;;;;;;;7.27;1.33;;;2.90;99.90;;;;;;5009538;28;20419;-84
2023/01/14 03:12:49;;;;;;;6.47;1.53;;;2.90;99.90;;;;;;5029933;28;20021;-83
2023/01/14 03:15:24;;;;;;;5.40;1.53;;;2.90;99.90;;;;;;5029864;28;20047;-83
2023/01/14 03:18:08;;;;;;;;;;;2.90;99.90;;;;;;5027521;28;20418;-84
2023/01/14 03:20:38;;;;;;;5.77;1.20;;;3.00;99.90;;;;;;5029412;28;19905;-83
2023/01/14 03:23:07;;;;;;;5.80;1.43;;;3.00;99.90;;;;;;5027998;28;20029;-83
2023/01/14 03:25:35;;;;;;;5.30;1.53;;;3.00;99.90;;;;;;5029918;28;20029;-83
2023/01/14 03:28:04;;;;;;;5.87;1.30;;;3.10;99.90;;;;;;5012430;28;20040;-84
2023/01/14 03:30:35;;;;;;;8.47;2.37;;;3.10;99.90;;;;;;5029203;28;20021;-84
2023/01/14 03:33:06;;;;;;;5.80;1.60;;;3.20;99.90;;;;;;5028620;28;20026;-84
2023/01/14 03:35:34;;;;;;;4.87;1.20;;;3.20;99.90;;;;;;5010087;28;20017;-84
2023/01/14 03:38:11;;;;;;;6.93;1.80;;;3.20;99.90;;;;;;5023449;28;20036;-84
2023/01/14 03:40:39;;;;;;;5.03;1.30;;;3.30;99.90;;;;;;5029872;28;20045;-83
2023/01/14 03:43:09;;;;;;;5.30;1.97;;;3.30;99.90;;;;;;5009774;28;20010;-84
2023/01/14 03:45:38;;;;;;;8.20;1.40;;;3.40;99.90;;;;;;5029907;28;20791;-84
2023/01/14 03:48:05;;;;;;;6.80;1.50;;;3.40;99.90;;;;;;5028489;28;20029;-84
2023/01/14 03:51:02;;;;;;;8.03;2.40;;;3.40;99.90;;;;;;5026994;28;20029;-84
2023/01/14 03:57:12;;;;;;;6.60;1.50;;;3.50;99.90;;;;;;5026006;28;20032;-83
2023/01/14 03:59:47;;;;;;;5.27;1.50;;;3.50;99.90;;;;;;5026176;28;20029;-83
2023/01/14 04:02:13;;;;;;;5.75;1.30;;;3.50;99.90;;;;;;5028066;28;20467;-84
2023/01/14 04:04:41;;;;;;;6.13;1.50;;;3.50;99.90;;;;;;5011793;28;20137;-84
2023/01/14 04:07:07;;;;;;;6.13;1.30;;;3.60;99.90;;;;;;5027839;28;20032;-84
2023/01/14 04:09:33;;;;;;;7.93;1.50;;;3.60;99.90;;;;;;5026078;28;20029;-84
2023/01/14 04:11:58;;;;;;;8.53;1.73;;;3.60;99.90;;;;;;5026859;28;20056;-83
2023/01/14 04:17:08;;;;;;;7.20;1.57;;;3.60;99.90;;;;;;5029169;28;20029;-84
2023/01/14 04:19:34;;;;;;;5.63;1.43;;;3.60;99.90;;;;;;5027684;28;20394;-84
2023/01/14 04:21:59;;;;;;;6.13;1.57;;;3.70;99.90;;;;;;5028875;28;20390;-83
2023/01/14 04:24:25;;;;;;;3.27;1.27;;;3.60;99.90;;;;;;5009920;28;20021;-83
2023/01/14 04:26:50;;;;;;;5.60;1.50;;;3.60;99.90;;;;;;5027538;28;20490;-82
2023/01/14 04:29:16;;;;;;;7.80;1.60;;;3.70;99.90;;;;;;5028024;28;20025;-82
2023/01/14 04:31:41;;;;;;;4.73;1.23;;;3.70;99.90;;;;;;5027143;28;20096;-82
2023/01/14 04:34:08;;;;;;;5.17;1.63;;;3.70;99.90;;;;;;5028438;28;20029;-83
2023/01/14 04:36:33;;;;;;;4.53;1.30;;;3.70;99.90;;;;;;5009614;28;20090;-83
2023/01/14 04:38:59;;;;;;;8.43;1.40;;;3.70;99.90;;;;;;5023265;28;20013;-83
2023/01/14 04:44:08;;;;;;;9.87;1.43;;;3.70;99.90;;;;;;5026310;28;20479;-83
2023/01/14 04:46:33;;;;;;;5.90;1.37;;;3.70;99.90;;;;;;5029512;28;20100;-83
2023/01/14 04:48:59;;;;;;;5.80;1.50;;;3.60;99.90;;;;;;5029156;28;20032;-83
2023/01/14 04:51:24;;;;;;;7.97;1.50;;;3.60;99.90;;;;;;5026291;28;20061;-83
2023/01/14 04:53:50;;;;;;;6.80;1.23;;;3.60;99.90;;;;;;5021800;28;20049;-83
2023/01/14 04:56:16;;;;;;;8.40;1.90;;;3.60;99.90;;;;;;5009953;28;20022;-83
2023/01/14 04:58:41;;;;;;;6.93;1.33;;;3.60;99.90;;;;;;5027849;28;20105;-83
2023/01/14 05:01:07;;;;;;;10.03;1.73;;;3.60;99.90;;;;;;5024651;28;20022;-83
2023/01/14 05:03:32;;;;;;;8.70;2.10;;;3.60;99.90;;;;;;5029488;28;20028;-83
2023/01/14 05:05:58;;;;;;;6.30;1.60;;;3.60;99.90;;;;;;5025940;28;20028;-83
2023/01/14 05:08:23;;;;;;;9.00;1.83;;;3.60;99.90;;;;;;5027456;28;20108;-83
2023/01/14 05:10:49;;;;;;;6.27;1.60;;;3.60;99.90;;;;;;5027752;28;20099;-83
2023/01/14 05:13:15;;;;;;;15.13;1.83;;;3.60;99.90;;;;;;5027907;28;20470;-83
2023/01/14 05:15:42;;;;;;;7.63;1.60;;;3.60;99.90;;;;;;5027061;28;20030;-83
2023/01/14 05:18:10;;;;;;;8.03;1.53;;;3.60;99.90;;;;;;5008224;28;20474;-83
2023/01/14 05:20:36;;;;;;;6.07;1.63;;;3.60;99.90;;;;;;5028784;28;20023;-84
2023/01/14 05:23:24;;;;;;;7.90;1.63;;;3.60;99.90;;;;;;5027017;28;20373;-83
2023/01/14 05:25:50;;;;;;;10.10;1.77;;;3.60;99.90;;;;;;5007729;28;20025;-84
2023/01/14 05:28:17;;;;;;;5.83;1.80;;;3.60;99.90;;;;;;5026862;28;20038;-83
2023/01/14 05:30:42;;;;;;;6.47;1.60;;;3.60;99.90;;;;;;5026047;28;20037;-83
2023/01/14 05:33:08;;;;;;;10.90;1.87;;;3.70;99.90;;;;;;5027409;28;20026;-83
2023/01/14 05:35:34;;;;;;;8.27;1.90;;;3.60;99.90;;;;;;5028325;28;20032;-83
2023/01/14 05:38:00;;;;;;;8.33;1.97;;;3.60;99.90;;;;;;5013110;28;20025;-84
2023/01/14 05:40:25;;;;;;;8.90;1.80;;;3.60;99.90;;;;;;5030152;28;20061;-83
2023/01/14 05:46:10;;;;;;;6.80;1.93;;;3.60;99.90;;;;;;5026518;28;20087;-84
2023/01/14 05:48:29;;;;;;;7.30;1.50;;;3.50;99.90;;;;;;5021691;28;20053;-84
2023/01/14 05:50:57;;;;;;;9.60;1.80;;;3.50;99.90;;;;;;5029986;28;20022;-84
2023/01/14 05:53:23;;;;;;;4.40;1.53;;;3.40;99.90;;;;;;5028358;28;20029;-84
2023/01/14 05:55:50;;;;;;;6.13;1.60;;;3.40;99.90;;;;;;5031770;28;20323;-84
2023/01/14 05:58:16;;;;;;;6.70;2.00;;;3.30;99.90;;;;;;5030419;28;20084;-84
2023/01/14 06:06:28;;;;;;;10.10;2.00;;;3.10;99.90;;;;;;5026351;28;20033;-84
2023/01/14 06:08:57;;;;;;;11.50;2.03;;;3.00;99.90;;;;;;5023881;28;20061;-84
2023/01/14 06:11:25;;;;;;;7.90;1.77;;;3.00;99.90;;;;;;5023657;28;20026;-84
2023/01/14 06:13:54;;;;;;;10.03;1.77;;;2.90;99.90;;;;;;5027780;28;20037;-84
2023/01/14 06:16:20;;;;;;;11.93;2.00;;;2.90;99.90;;;;;;5025123;28;20533;-84
2023/01/14 06:18:46;;;;;;;8.63;2.10;;;2.90;99.90;;;;;;5027617;28;20013;-84
2023/01/14 06:21:23;;;;;;;9.87;2.10;;;2.80;99.90;;;;;;5029635;28;20050;-84
2023/01/14 06:23:49;;;;;;;14.23;7.60;;;2.80;99.90;;;;;;5032951;28;20439;-84
2023/01/14 06:26:18;;;;;;;12.30;4.80;;;2.70;99.90;;;;;;5034026;28;20105;-84
2023/01/14 06:28:44;;;;;;;7.17;3.07;;;2.70;99.90;;;;;;5031512;28;20025;-83
2023/01/14 06:31:13;;;;;;;7.67;2.23;;;2.70;99.90;;;;;;5037453;28;20386;-84
2023/01/14 06:33:39;;;;;;;7.97;1.93;;;2.60;99.90;;;;;;5031763;28;20204;-84
2023/01/14 06:36:06;;;;;;;7.60;1.73;;;2.60;99.90;;;;;;5031968;28;20026;-84
2023/01/14 06:38:32;;;;;;;8.20;2.50;;;2.60;99.90;;;;;;5035244;28;20105;-84
2023/01/14 06:40:59;;;;;;;6.93;2.53;;;2.50;99.90;;;;;;5036679;28;20085;-84
2023/01/14 06:43:25;;;;;;;11.17;2.20;;;2.50;99.90;;;;;;5033107;28;20040;-84
2023/01/14 06:45:54;;;;;;;10.77;2.10;;;2.50;99.90;;;;;;5013943;28;20045;-84
2023/01/14 06:48:21;;;;;;;7.80;1.47;;;2.50;99.90;;;;;;5034353;28;20378;-84
2023/01/14 06:50:46;;;;;;;6.50;1.60;;;2.50;99.90;;;;;;5032351;28;20038;-84
2023/01/14 06:53:12;;;;;;;7.97;1.73;;;2.40;99.90;;;;;;5034209;28;20457;-83
2023/01/14 06:55:37;;;;;;;11.43;2.00;;;2.40;99.90;;;;;;5010566;28;20079;-83
2023/01/14 06:58:03;;;;;;;7.97;1.63;;;2.40;99.90;;;;;;5034004;28;20061;-83
2023/01/14 07:00:29;;;;;;;6.20;1.73;;;2.40;99.90;;;;;;5028709;28;20072;-83
2023/01/14 07:02:54;;;;;;;9.60;1.97;;;2.40;99.90;;;;;;5027874;28;20038;-83
2023/01/14 07:05:20;;;;;;;8.13;1.87;;;2.40;99.90;;;;;;5037131;28;20116;-83
2023/01/14 07:07:47;;;;;;;11.23;2.77;;;2.40;99.90;;;;;;5037188;28;20026;-83
2023/01/14 07:10:13;;;;;;;11.60;1.97;;;2.40;99.90;;;;;;5035332;28;20040;-83
2023/01/14 07:12:46;;;;;;;11.47;2.03;;;2.40;99.90;;;;;;5032417;28;20032;-83
2023/01/14 07:15:13;;;;;;;6.17;2.00;;;2.40;99.90;;;;;;5029137;28;20459;-83
2023/01/14 07:17:39;;;;;;;11.23;1.83;;;2.40;99.90;;;;;;5033201;28;20485;-79
2023/01/14 07:20:06;;;;;;;11.00;2.27;;;2.40;99.90;;;;;;5031371;28;20108;-80
2023/01/14 07:22:32;;;;;;;15.83;5.80;;;2.40;99.90;;;;;;5033265;28;20155;-80
2023/01/14 07:24:57;;;;;;;12.00;3.43;;;2.40;99.90;;;;;;5033439;28;20482;-83
2023/01/14 07:27:23;;;;;;;10.57;2.70;;;2.50;99.90;;;;;;5015597;28;20060;-87
2023/01/14 07:29:48;;;;;;;8.73;1.97;;;2.50;99.90;;;;;;5030160;28;20034;-82
2023/01/14 07:32:14;;;;;;;12.33;2.10;;;2.50;99.90;;;;;;5025575;28;20363;-82
2023/01/14 07:34:39;;;;;;;10.47;3.23;;;2.60;99.90;;;;;;5031353;28;20033;-82
2023/01/14 07:37:05;;;;;;;8.70;2.57;;;2.60;99.90;;;;;;5028742;28;20402;-80
2023/01/14 07:39:30;;;;;;;9.83;2.90;;;2.60;99.90;;;;;;5030311;28;20064;-81
2023/01/14 07:41:56;;;;;;;9.37;2.57;;;2.70;99.90;;;;;;5028941;28;20053;-81
2023/01/14 07:44:24;;;;;;;11.20;3.83;;;2.70;99.90;;;;;;5014445;28;20038;-80
2023/01/14 07:46:55;;;;;;;7.80;2.30;;;2.80;99.90;;;;;;5027644;28;20028;-81
2023/01/14 07:49:22;;;;;;;10.50;2.37;;;2.80;99.90;;;;;;5031121;28;20409;-80
2023/01/14 07:51:48;;;;;;;12.33;2.37;;;2.90;99.90;;;;;;5024878;28;20053;-81
2023/01/14 07:54:14;;;;;;;11.70;2.67;;;2.90;99.90;;;;;;5024406;28;20021;-81
2023/01/14 07:56:40;;;;;;;9.37;2.80;;;3.00;99.90;;;;;;5028002;28;20480;-81
2023/01/14 07:59:05;;;;;;;10.43;2.30;;;3.00;99.90;;;;;;5030311;28;20109;-80
2023/01/14 08:01:31;;;;;;;11.77;2.20;;;3.10;99.90;;;;;;5026052;28;20057;-81
2023/01/14 08:03:58;;;;;;;11.83;2.50;;;3.20;99.90;;;;;;5025959;28;20459;-81
2023/01/14 08:06:24;;;;;;;11.30;2.40;;;3.20;99.90;;;;;;5030365;28;20037;-80
2023/01/14 08:08:49;;;;;;;12.27;2.10;;;3.30;99.90;;;;;;5013031;28;20025;-80
2023/01/14 08:11:15;;;;;;;10.97;2.50;;;3.30;99.90;;;;;;5012353;28;20356;-81
2023/01/14 08:13:40;;;;;;;13.63;2.50;;;3.30;99.90;;;;;;5028526;28;20033;-80
2023/01/14 08:16:08;;;;;;;10.23;2.60;;;3.30;99.90;;;;;;5024766;28;20038;-81
2023/01/14 08:18:35;;;;;;;14.90;3.13;;;3.30;99.90;;;;;;5011931;28;20467;-81
2023/01/14 08:21:03;;;;;;;13.70;2.60;;;3.30;99.90;;;;;;5025799;28;20033;-81
2023/01/14 08:23:30;;;;;;;8.40;2.73;;;3.30;99.90;;;;;;5025609;28;20029;-81
2023/01/14 08:26:00;;;;;;;8.63;2.43;;;3.40;99.90;;;;;;5028397;28;20033;-81
2023/01/14 08:28:26;;;;;;;13.77;2.60;;;3.40;99.90;;;;;;5030662;28;20374;-81
2023/01/14 08:31:01;;;;;;;21.33;3.90;;;3.40;99.90;;;;;;5028891;28;20045;-81
2023/01/14 08:33:26;;;;;;;6.93;2.22;;;3.50;99.90;;;;;;5027402;28;20037;-81
2023/01/14 08:35:52;;;;;;;10.17;2.40;;;3.60;99.90;;;;;;5025321;28;20025;-81
2023/01/14 08:38:17;;;;;;;12.40;2.80;;;3.70;99.90;;;;;;5029065;28;20026;-81
2023/01/14 08:40:43;;;;;;;7.63;2.23;;;3.80;99.90;;;;;;5022569;28;20073;-82
2023/01/14 08:43:08;;;;;;;7.13;1.90;;;3.90;99.90;;;;;;5030928;28;20021;-82
2023/01/14 08:45:34;;;;;;;10.03;2.50;;;3.90;99.90;;;;;;5028327;28;20025;-82
2023/01/14 08:48:00;;;;;;;10.97;2.70;;;4.00;99.90;;;;;;5027463;28;20029;-82
2023/01/14 08:50:25;;;;;;;8.17;2.50;;;4.10;99.90;;;;;;5028611;28;20026;-82
2023/01/14 08:52:51;;;;;;;11.63;3.10;;;4.20;99.90;;;;;;5026172;28;20105;-82
2023/01/14 08:55:16;;;;;;;12.97;3.27;;;4.30;99.90;;;;;;5027463;28;20096;-82
2023/01/14 08:57:42;;;;;;;15.73;2.80;;;4.40;99.90;;;;;;5028868;28;20164;-82
2023/01/14 09:00:09;;;;;;;10.43;2.80;;;4.50;99.90;;;;;;5026743;28;20025;-81
2023/01/14 09:02:34;;;;;;;8.70;2.13;;;4.50;99.90;;;;;;5027277;28;20372;-82
2023/01/14 09:05:01;;;;;;;9.10;2.97;;;4.60;99.90;;;;;;5024568;28;20037;-82
2023/01/14 09:18:23;;;;;;;9.43;2.33;;;5.10;99.90;;;;;;5027172;28;20097;-82
2023/01/14 09:20:49;;;;;;;10.70;2.13;;;5.20;99.90;;;;;;5025000;28;20021;-82
2023/01/14 09:23:15;;;;;;;7.70;2.10;;;5.30;99.90;;;;;;5023567;28;20026;-82
2023/01/14 09:25:40;;;;;;;9.23;1.83;;;5.50;99.90;;;;;;5023912;28;20063;-82
2023/01/14 09:28:06;;;;;;;12.30;1.97;;;5.80;99.90;;;;;;5026025;28;20021;-82
2023/01/14 09:30:32;;;;;;;7.90;2.00;;;5.90;99.90;;;;;;5022540;28;20029;-82
2023/01/14 09:32:58;;;;;;;9.27;2.33;;;6.10;99.90;;;;;;5024899;28;20116;-80
2023/01/14 09:35:24;;;;;;;3.27;1.47;;;6.30;99.90;;;;;;5004672;28;20440;-80
2023/01/14 09:37:49;;;;;;;8.70;1.80;;;6.50;99.90;;;;;;5024482;28;20030;-78
2023/01/14 09:40:15;;;;;;;4.93;1.63;;;6.60;99.90;;;;;;5024229;28;20041;-79
2023/01/14 09:42:47;;;;;;;13.73;2.73;;;6.80;99.90;;;;;;5022780;28;20054;-77
2023/01/14 09:45:31;;;;;;;14.37;2.13;;;6.90;99.90;;;;;;5003866;28;20026;-81
2023/01/14 09:48:03;;;;;;;7.30;1.50;;;7.00;99.90;;;;;;5022652;28;20037;-79
2023/01/14 09:50:52;;;;;;;11.80;1.70;;;7.20;99.90;;;;;;5007942;28;20068;-73
2023/01/14 09:53:45;;;;;;;3.60;1.40;;;7.20;99.90;;;;;;5023177;28;20038;-78
2023/01/14 09:56:19;;;;;;;5.73;1.30;;;7.30;99.90;;;;;;5023318;28;20080;-78
2023/01/14 09:58:49;;;;;;;6.27;1.87;;;7.40;99.90;;;;;;5025306;28;20464;-79
2023/01/14 10:01:32;;;;;;;4.10;1.50;;;7.50;99.90;;;;;;5021069;28;20072;-79
2023/01/14 10:04:36;;;;;;;4.87;1.30;;;7.50;99.90;;;;;;5025465;28;20049;-79
2023/01/14 10:07:03;;;;;;;4.20;1.30;;;7.50;99.90;;;;;;5026346;28;20105;-70
2023/01/14 10:09:54;;;;;;;3.77;1.20;;;7.60;99.90;;;;;;5025554;28;20029;-81
2023/01/14 10:12:27;;;;;;;3.27;1.37;;;7.60;99.90;;;;;;5025368;28;20021;-81
2023/01/14 10:15:01;;;;;;;3.83;1.33;;;7.70;99.90;;;;;;5027085;28;20033;-81
2023/01/14 10:17:31;;;;;;;5.33;1.90;;;7.80;99.90;;;;;;5024995;28;20485;-81
2023/01/14 10:20:03;;;;;;;3.87;1.13;;;7.80;99.90;;;;;;5027618;28;20013;-81
2023/01/14 10:22:49;;;;;;;6.20;1.67;;;7.80;99.90;;;;;;5026548;28;20080;-81
2023/01/14 10:25:22;;;;;;;2.87;1.17;;;7.80;99.90;;;;;;5025449;28;20021;-81
2023/01/14 10:27:52;;;;;;;3.20;1.00;;;8.00;99.90;;;;;;5025590;28;20366;-81
2023/01/14 10:30:31;;;;;;;3.30;1.20;;;8.00;99.90;;;;;;5024802;28;20018;-80
2023/01/14 10:32:58;;;;;;;1.80;1.00;;;8.00;99.90;;;;;;5004260;28;20029;-80
2023/01/14 10:35:32;;;;;;;4.03;1.17;;;8.00;99.90;;;;;;5026025;28;20033;-80
2023/01/14 10:37:57;;;;;;;2.37;1.00;;;8.10;99.90;;;;;;5008326;28;20021;-81
2023/01/14 10:40:25;;;;;;;6.83;1.20;;;8.10;99.90;;;;;;5026169;28;20068;-81
2023/01/14 10:42:52;;;;;;;6.10;1.40;;;8.20;99.90;;;;;;5027005;28;20489;-81
2023/01/14 10:45:18;;;;;;;3.70;1.27;;;8.20;99.90;;;;;;5025827;28;20473;-81
2023/01/14 10:47:46;;;;;;;5.53;1.13;;;8.20;99.90;;;;;;5008036;28;20045;-81
2023/01/14 10:50:20;;;;;;;3.40;0.90;;;8.20;99.90;;;;;;5028074;28;20025;-81
2023/01/14 10:52:45;;;;;;;5.23;1.53;;;8.30;99.90;;;;;;5028749;28;20029;-80
2023/01/14 10:55:11;;;;;;;7.33;1.23;;;8.30;99.90;;;;;;5027111;28;20195;-81
2023/01/14 10:58:08;;;;;;;5.67;1.60;;;8.30;99.90;;;;;;5027547;28;20072;-80
2023/01/14 11:00:38;;;;;;;1.77;0.97;;;8.30;99.90;;;;;;5017680;28;20045;-80
2023/01/14 11:03:27;;;;;;;3.13;1.00;;;8.30;99.90;;;;;;5010067;28;20045;-81
2023/01/14 11:06:03;;;;;;;2.90;1.10;;;8.40;99.90;;;;;;5027025;28;20509;-80
2023/01/14 11:08:41;;;;;;;2.47;1.02;;;8.40;99.90;;;;;;5026567;28;20026;-81
2023/01/14 11:11:09;;;;;;;4.77;1.10;;;8.50;99.90;;;;;;5028129;28;20144;-81
2023/01/14 11:13:41;;;;;;;2.70;1.17;;;8.50;99.90;;;;;;5028559;28;20026;-81
2023/01/14 11:16:27;;;;;;;2.80;1.03;;;8.50;99.90;;;;;;5025833;28;20697;-82
2023/01/14 11:18:57;;;;;;;1.57;0.90;;;8.60;99.90;;;;;;5030310;28;20401;-81
2023/01/14 11:21:28;;;;;;;2.47;0.87;;;8.50;99.90;;;;;;5011147;28;20025;-82
2023/01/14 11:24:00;;;;;;;2.30;0.93;;;8.50;99.90;;;;;;5028241;28;20025;-82
2023/01/14 11:26:36;;;;;;;3.07;1.20;;;8.60;99.90;;;;;;5009780;28;20389;-80
2023/01/14 11:29:22;;;;;;;3.13;1.20;;;8.60;99.90;;;;;;5027719;28;20482;-80
2023/01/14 11:31:50;;;;;;;1.77;0.90;;;8.70;99.90;;;;;;5028685;28;20039;-81
2023/01/14 11:34:38;;;;;;;4.13;1.20;;;8.70;99.90;;;;;;5028273;28;20025;-81
2023/01/14 11:37:10;;;;;;;3.40;1.03;;;8.70;99.90;;;;;;5027352;28;21396;-81
2023/01/14 11:39:37;;;;;;;2.83;1.20;;;8.80;99.90;;;;;;5028093;28;20051;-81
2023/01/14 11:42:26;;;;;;;2.87;1.20;;;8.80;99.90;;;;;;5028154;28;20048;-82
2023/01/14 11:45:10;;;;;;;3.37;1.30;;;8.80;99.90;;;;;;5028573;28;20044;-82
2023/01/14 11:47:55;;;;;;;2.87;1.40;;;8.90;99.90;;;;;;5024863;28;20025;-82
2023/01/14 11:50:24;;;;;;;2.23;1.20;;;8.90;99.90;;;;;;5027427;28;20438;-82
2023/01/14 11:53:03;;;;;;;3.43;1.30;;;8.90;99.90;;;;;;5026272;28;20039;-81
2023/01/14 11:55:35;;;;;;;4.90;1.63;;;8.90;99.90;;;;;;5006241;28;20021;-81
2023/01/14 11:58:25;;;;;;;2.90;1.30;;;8.90;99.90;;;;;;5024307;28;20028;-81
2023/01/14 12:01:01;;;;;;;2.77;1.30;;;8.90;99.90;;;;;;5023350;28;20021;-81
2023/01/14 12:03:39;;;;;;;1.60;0.90;;;8.90;99.90;;;;;;5025423;28;20018;-79
2023/01/14 12:06:10;;;;;;;2.03;1.20;;;8.90;99.90;;;;;;5004655;28;20040;-79
2023/01/14 12:08:39;;;;;;;3.30;1.10;;;8.90;99.90;;;;;;5021902;28;20029;-79
2023/01/14 12:11:12;;;;;;;3.63;1.30;;;8.90;99.90;;;;;;5025981;28;20042;-78
2023/01/14 12:16:52;;;;;;;2.90;1.00;;;9.00;99.90;;;;;;5025723;28;20102;-80
2023/01/14 12:19:36;;;;;;;2.10;1.10;;;9.00;99.90;;;;;;5026402;28;20113;-79
2023/01/14 12:22:15;;;;;;;2.00;1.00;;;9.10;99.90;;;;;;5027514;28;20029;-79
2023/01/14 12:24:56;;;;;;;1.50;1.00;;;9.10;99.90;;;;;;5024062;28;20033;-80
2023/01/14 12:27:43;;;;;;;4.10;1.40;;;9.20;99.90;;;;;;5023232;28;20037;-79
2023/01/14 12:30:35;;;;;;;3.93;1.30;;;9.30;99.90;;;;;;5023013;28;20467;-79
2023/01/14 12:33:16;;;;;;;5.53;1.60;;;9.40;99.90;;;;;;5026099;28;20033;-80
2023/01/14 12:36:08;;;;;;;2.70;1.20;;;9.50;99.90;;;;;;5021107;28;20044;-80
2023/01/14 12:45:44;;;;;;;1.80;0.80;;;9.60;99.90;;;;;;5017964;28;20068;-81
2023/01/14 12:48:25;;;;;;;3.17;0.93;;;9.60;99.90;;;;;;5020103;28;20037;-81
2023/01/14 12:51:08;;;;;;;4.87;0.90;;;9.70;99.90;;;;;;5019066;28;20049;-81
2023/01/14 12:53:48;;;;;;;3.00;1.00;;;9.60;99.90;;;;;;5019902;28;20025;-81
2023/01/14 12:56:21;;;;;;;1.90;1.07;;;9.60;99.90;;;;;;5019283;28;21433;-81
2023/01/14 12:59:21;;;;;;;3.13;1.20;;;9.70;99.90;;;;;;5019938;28;20417;-81
2023/01/14 13:02:16;;;;;;;2.57;1.00;;;9.70;99.90;;;;;;5017181;28;20053;-81
2023/01/14 13:04:58;;;;;;;1.35;0.80;;;9.70;99.90;;;;;;5020729;28;20137;-81
2023/01/14 13:07:27;;;;;;;4.07;1.83;;;9.70;99.90;;;;;;5019063;28;20053;-81
2023/01/14 13:09:55;;;;;;;5.00;2.20;;;9.80;99.90;;;;;;5018723;28;20509;-81
2023/01/14 13:12:26;;;;;;;4.60;2.40;;;9.80;99.90;;;;;;5018803;28;20026;-81
2023/01/14 13:14:55;;;;;;;4.67;1.80;;;9.80;99.90;;;;;;4997823;28;20029;-81
2023/01/14 13:17:31;;;;;;;2.93;1.70;;;9.90;99.90;;;;;;4998041;28;20075;-88
2023/01/14 13:19:57;;;;;;;4.30;2.03;;;9.90;99.90;;;;;;5027013;28;20041;-89
2023/01/14 13:22:43;;;;;;;2.27;1.37;;;9.90;99.90;;;;;;5017181;28;20060;-89
2023/01/14 13:25:27;;;;;;;;;;;9.90;99.90;;;;;;5032282;28;21412;-89
2023/01/14 13:27:53;;;;;;;2.87;1.50;;;9.90;99.90;;;;;;5010554;28;20060;-89
2023/01/14 13:30:18;;;;;;;2.53;1.30;;;9.80;99.90;;;;;;5034566;28;20025;-88
2023/01/14 13:32:50;;;;;;;2.77;1.00;;;9.80;99.90;;;;;;5035426;28;20382;-88
2023/01/14 13:35:20;;;;;;;2.13;0.90;;;9.80;99.90;;;;;;5019019;28;20021;-89
2023/01/14 13:37:47;;;;;;;3.03;1.70;;;9.70;99.90;;;;;;5029899;28;20018;-89
2023/01/14 13:40:23;;;;;;;8.03;3.47;;;9.70;99.90;;;;;;5028310;28;20501;-89
2023/01/14 13:43:04;;;;;;;5.07;2.90;;;9.70;99.90;;;;;;5024688;28;20025;-89
2023/01/14 13:45:36;;;;;;;5.43;2.40;;;9.70;99.90;;;;;;5024324;28;20049;-89
2023/01/14 13:48:14;;;;;;;3.00;1.30;;;9.60;99.90;;;;;;5025244;28;20048;-89
2023/01/14 13:50:40;;;;;;;3.73;1.97;;;9.60;99.90;;;;;;5030190;28;20025;-89
2023/01/14 13:53:26;;;;;;;7.97;5.73;;;9.60;99.90;;;;;;5027322;28;20105;-89
2023/01/14 13:55:58;;;;;;;3.67;1.92;;;9.60;99.90;;;;;;5024227;28;20035;-88
2023/01/14 13:58:24;;;;;;;2.50;1.50;;;9.50;99.90;;;;;;5019740;28;20057;-67